createdAt,value
2022-10-28T00:01:10.039Z,1.00
2022-10-28T00:03:45.809Z,1.15
2022-10-28T00:06:18.733Z,2.47
2022-10-28T00:08:45.641Z,1.02
2022-10-28T00:11:18.326Z,0.80
2022-10-28T00:13:46.156Z,0.93
2022-10-28T00:16:15.860Z,0.90
2022-10-28T00:18:43.325Z,1.00
2022-10-28T00:21:19.731Z,1.00
2022-10-28T00:23:46.921Z,1.15
2022-10-28T00:26:17.297Z,1.50
2022-10-28T00:28:50.661Z,1.10
2022-10-28T00:31:19.589Z,1.00
2022-10-28T00:33:47.315Z,1.30
2022-10-28T00:36:26.035Z,1.42
2022-10-28T00:38:54.577Z,0.90
2022-10-28T00:41:34.703Z,0.80
2022-10-28T00:44:40.271Z,1.30
2022-10-28T00:47:16.579Z,0.90
2022-10-28T00:49:45.758Z,1.10
2022-10-28T00:52:18.706Z,1.17
2022-10-28T00:54:46.132Z,0.98
2022-10-28T00:57:17.617Z,0.77
2022-10-28T00:59:48.849Z,1.40
2022-10-28T01:02:16.235Z,2.28
2022-10-28T01:04:44.254Z,1.48
2022-10-28T01:07:11.546Z,1.15
2022-10-28T01:09:40.682Z,0.68
2022-10-28T01:12:25.355Z,0.80
2022-10-28T01:15:03.883Z,0.98
2022-10-28T01:18:18.220Z,1.00
2022-10-28T01:21:03.819Z,1.05
2022-10-28T01:23:39.364Z,1.63
2022-10-28T01:26:34.909Z,1.60
2022-10-28T01:29:20.684Z,1.20
2022-10-28T01:32:11.564Z,0.80
2022-10-28T01:35:00.901Z,1.05
2022-10-28T01:37:30.557Z,0.88
2022-10-28T01:40:29.714Z,0.80
2022-10-28T01:43:07.981Z,0.90
2022-10-28T01:45:42.428Z,1.02
2022-10-28T01:48:12.786Z,0.75
2022-10-28T01:51:01.378Z,1.20
2022-10-28T01:53:33.992Z,1.98
2022-10-28T01:56:05.701Z,1.45
2022-10-28T01:58:34.150Z,1.45
2022-10-28T02:01:06.168Z,1.17
2022-10-28T02:03:33.034Z,1.05
2022-10-28T02:06:05.192Z,0.82
2022-10-28T02:08:53.093Z,1.73
2022-10-28T02:11:22.742Z,0.93
2022-10-28T02:14:01.923Z,0.80
2022-10-28T02:16:36.181Z,0.80
2022-10-28T02:19:28.660Z,1.25
2022-10-28T02:22:14.176Z,1.63
2022-10-28T02:24:51.055Z,0.73
2022-10-28T02:27:17.892Z,0.80
2022-10-28T02:30:00.303Z,1.38
2022-10-28T02:32:31.454Z,2.08
2022-10-28T02:37:32.913Z,1.02
2022-10-28T02:40:06.973Z,0.80
2022-10-28T02:42:37.431Z,1.10
2022-10-28T02:45:16.933Z,0.85
2022-10-28T02:47:52.083Z,0.75
2022-10-28T02:50:24.989Z,1.42
2022-10-28T02:52:57.177Z,1.10
2022-10-28T02:55:30.781Z,1.08
2022-10-28T02:57:58.317Z,0.90
2022-10-28T03:00:25.262Z,1.00
2022-10-28T03:02:52.219Z,1.00
2022-10-28T03:05:19.227Z,0.80
2022-10-28T03:07:46.100Z,0.95
2022-10-28T03:10:12.941Z,1.08
2022-10-28T03:12:42.812Z,0.80
2022-10-28T03:15:10.119Z,1.20
2022-10-28T03:17:36.916Z,1.77
2022-10-28T03:20:03.949Z,1.17
2022-10-28T03:22:30.867Z,1.00
2022-10-28T03:24:57.691Z,0.80
2022-10-28T03:27:24.629Z,2.60
2022-10-28T03:29:51.411Z,1.45
2022-10-28T03:32:18.327Z,0.90
2022-10-28T03:34:45.265Z,1.00
2022-10-28T03:37:12.173Z,0.73
2022-10-28T03:39:38.988Z,0.90
2022-10-28T03:42:05.906Z,0.80
2022-10-28T03:44:32.716Z,1.67
2022-10-28T03:46:59.535Z,0.93
2022-10-28T03:49:26.419Z,0.90
2022-10-28T03:51:53.259Z,1.20
2022-10-28T03:54:20.131Z,1.05
2022-10-28T03:56:46.948Z,0.82
2022-10-28T03:59:16.332Z,0.80
2022-10-28T04:01:46.181Z,1.00
2022-10-28T04:04:13.105Z,2.58
2022-10-28T04:06:39.935Z,1.67
2022-10-28T04:09:06.748Z,1.45
2022-10-28T04:11:33.660Z,1.00
2022-10-28T04:14:00.501Z,1.23
2022-10-28T04:16:27.368Z,1.08
2022-10-28T04:18:54.194Z,1.65
2022-10-28T04:21:21.068Z,1.30
2022-10-28T04:23:47.921Z,0.82
2022-10-28T04:26:15.648Z,3.03
2022-10-28T04:28:42.538Z,1.10
2022-10-28T04:31:10.525Z,1.13
2022-10-28T04:33:37.359Z,1.30
2022-10-28T04:36:04.483Z,1.10
2022-10-28T04:38:31.352Z,1.13
2022-10-28T04:40:58.265Z,1.02
2022-10-28T04:43:25.163Z,1.02
2022-10-28T04:45:52.013Z,1.40
2022-10-28T04:48:18.857Z,2.55
2022-10-28T04:50:45.928Z,1.15
2022-10-28T04:53:13.474Z,1.73
2022-10-28T04:55:40.350Z,1.50
2022-10-28T04:58:07.271Z,1.42
2022-10-28T05:00:34.060Z,2.25
2022-10-28T05:03:04.289Z,1.88
2022-10-28T05:05:31.344Z,1.83
2022-10-28T05:07:58.433Z,2.10
2022-10-28T05:10:25.712Z,2.95
2022-10-28T05:12:52.561Z,1.65
2022-10-28T05:15:19.443Z,1.48
2022-10-28T05:17:47.592Z,2.63
2022-10-28T05:20:17.607Z,2.08
2022-10-28T05:22:54.077Z,5.47
2022-10-28T05:25:22.147Z,17.10
2022-10-28T05:27:49.054Z,24.77
2022-10-28T05:30:16.124Z,3.88
2022-10-28T05:32:43.049Z,5.00
2022-10-28T05:35:10.888Z,7.10
2022-10-28T05:37:38.134Z,5.93
2022-10-28T05:40:05.246Z,5.40
2022-10-28T05:42:32.063Z,4.25
2022-10-28T05:44:58.903Z,6.63
2022-10-28T05:47:25.856Z,7.78
2022-10-28T05:49:52.702Z,4.68
2022-10-28T05:52:19.536Z,5.47
2022-10-28T05:54:46.402Z,6.00
2022-10-28T05:57:13.448Z,5.55
2022-10-28T05:59:40.345Z,6.60
2022-10-28T06:02:14.202Z,5.53
2022-10-28T06:04:42.096Z,6.82
2022-10-28T06:07:09.189Z,7.57
2022-10-28T06:09:36.330Z,9.00
2022-10-28T06:12:01.758Z,7.88
2022-10-28T06:14:28.565Z,5.47
2022-10-28T06:16:55.534Z,7.75
2022-10-28T06:19:22.411Z,8.05
2022-10-28T06:21:49.299Z,7.25
2022-10-28T06:24:16.168Z,5.93
2022-10-28T06:26:43.088Z,7.60
2022-10-28T06:29:10.921Z,12.00
2022-10-28T06:31:39.323Z,4.45
2022-10-28T06:34:10.778Z,6.57
2022-10-28T06:36:38.488Z,5.97
2022-10-28T06:39:05.845Z,9.38
2022-10-28T06:41:33.630Z,7.05
2022-10-28T06:44:00.889Z,7.93
2022-10-28T06:46:28.199Z,7.93
2022-10-28T06:48:57.267Z,5.10
2022-10-28T06:51:24.721Z,9.88
2022-10-28T06:53:52.723Z,6.65
2022-10-28T06:56:19.679Z,5.63
2022-10-28T06:58:51.132Z,6.88
2022-10-28T07:01:18.922Z,4.45
2022-10-28T07:03:46.897Z,3.55
2022-10-28T07:09:01.367Z,3.17
2022-10-28T07:11:28.362Z,4.65
2022-10-28T07:13:55.278Z,4.28
2022-10-28T07:16:22.273Z,6.35
2022-10-28T07:18:49.332Z,4.32
2022-10-28T07:21:18.646Z,3.88
2022-10-28T07:23:47.696Z,3.17
2022-10-28T07:26:14.763Z,3.20
2022-10-28T07:28:44.940Z,1.95
2022-10-28T07:33:58.759Z,2.55
2022-10-28T07:36:25.993Z,2.25
2022-10-28T07:38:53.064Z,5.35
2022-10-28T07:41:21.489Z,3.40
2022-10-28T07:43:49.004Z,2.22
2022-10-28T07:46:17.098Z,3.58
2022-10-28T07:48:44.173Z,3.47
2022-10-28T07:51:14.427Z,2.80
2022-10-28T07:53:41.920Z,2.37
2022-10-28T07:56:13.464Z,2.63
2022-10-28T07:58:42.463Z,3.50
2022-10-28T08:01:10.704Z,2.83
2022-10-28T08:03:39.192Z,2.92
2022-10-28T08:06:12.572Z,1.98
2022-10-28T08:08:40.052Z,2.20
2022-10-28T08:11:15.261Z,2.35
2022-10-28T08:13:42.610Z,3.22
2022-10-28T08:16:10.069Z,4.47
2022-10-28T08:18:38.226Z,3.03
2022-10-28T08:21:07.492Z,4.85
2022-10-28T08:23:34.493Z,4.95
2022-10-28T08:26:02.401Z,3.97
2022-10-28T08:28:29.514Z,3.67
2022-10-28T08:31:08.665Z,4.38
2022-10-28T08:33:38.515Z,4.45
2022-10-28T08:36:07.078Z,4.60
2022-10-28T08:38:34.128Z,6.22
2022-10-28T08:41:16.106Z,2.58
2022-10-28T08:43:57.223Z,4.40
2022-10-28T08:46:42.716Z,2.30
2022-10-28T08:49:14.809Z,1.55
2022-10-28T08:52:03.910Z,1.73
2022-10-28T08:54:36.641Z,3.30
2022-10-28T08:57:12.559Z,3.70
2022-10-28T08:59:42.651Z,4.22
2022-10-28T09:02:33.525Z,2.35
2022-10-28T09:05:20.908Z,2.30
2022-10-28T09:07:48.212Z,1.55
2022-10-28T09:10:17.057Z,1.67
2022-10-28T09:13:11.700Z,2.28
2022-10-28T09:16:15.220Z,6.72
2022-10-28T09:18:59.579Z,2.42
2022-10-28T09:21:41.405Z,2.70
2022-10-28T09:24:20.568Z,1.83
2022-10-28T09:27:17.059Z,2.47
2022-10-28T09:30:07.607Z,7.72
2022-10-28T09:32:47.481Z,1.57
2022-10-28T09:35:18.208Z,3.45
2022-10-28T09:37:48.870Z,5.68
2022-10-28T09:40:18.858Z,3.50
2022-10-28T09:43:08.118Z,2.95
2022-10-28T09:45:40.413Z,1.77
2022-10-28T09:48:19.644Z,2.85
2022-10-28T09:50:51.188Z,4.68
2022-10-28T09:53:36.057Z,5.05
2022-10-28T09:58:35.548Z,3.23
2022-10-28T10:01:05.322Z,2.47
2022-10-28T10:03:33.159Z,4.30
2022-10-28T10:06:13.952Z,2.17
2022-10-28T10:08:42.371Z,1.83
2022-10-28T10:11:25.197Z,4.70
2022-10-28T10:13:53.256Z,5.28
2022-10-28T10:16:35.227Z,1.17
2022-10-28T10:19:06.668Z,1.75
2022-10-28T10:21:50.187Z,1.90
2022-10-28T10:24:33.888Z,2.13
2022-10-28T10:27:21.331Z,2.25
2022-10-28T10:29:50.747Z,1.42
2022-10-28T10:32:33.367Z,2.38
2022-10-28T10:35:18.579Z,2.75
2022-10-28T10:37:47.302Z,2.78
2022-10-28T10:40:31.467Z,1.08
2022-10-28T10:43:22.569Z,3.13
2022-10-28T10:45:59.157Z,0.75
2022-10-28T10:48:26.247Z,1.98
2022-10-28T10:50:54.986Z,0.50
2022-10-28T10:53:32.927Z,1.42
2022-10-28T10:56:03.965Z,1.10
2022-10-28T10:58:34.642Z,1.98
2022-10-28T11:01:06.088Z,0.20
2022-10-28T11:03:40.432Z,0.82
2022-10-28T11:06:23.116Z,0.40
2022-10-28T11:08:59.282Z,0.68
2022-10-28T11:11:40.313Z,1.83
2022-10-28T11:14:22.771Z,1.00
2022-10-28T11:16:51.083Z,0.65
2022-10-28T11:19:37.948Z,0.45
2022-10-28T11:22:23.669Z,0.88
2022-10-28T11:25:32.145Z,0.95
2022-10-28T11:28:13.656Z,0.98
2022-10-28T11:30:54.239Z,0.50
2022-10-28T11:33:39.183Z,3.03
2022-10-28T11:36:31.769Z,0.95
2022-10-28T11:39:26.268Z,0.60
2022-10-28T11:41:56.242Z,1.17
2022-10-28T11:47:30.033Z,1.90
2022-10-28T11:50:03.656Z,1.17
2022-10-28T11:52:52.370Z,1.55
2022-10-28T11:55:37.334Z,3.33
2022-10-28T11:58:21.453Z,1.75
2022-10-28T12:01:03.399Z,5.60
2022-10-28T12:03:54.272Z,2.35
2022-10-28T12:06:21.461Z,1.77
2022-10-28T12:08:48.328Z,6.55
2022-10-28T12:11:47.461Z,3.63
2022-10-28T12:14:32.899Z,1.77
2022-10-28T12:17:06.919Z,2.15
2022-10-28T12:19:40.189Z,4.10
2022-10-28T12:22:12.178Z,3.30
2022-10-28T12:24:43.560Z,3.47
2022-10-28T12:27:19.393Z,1.65
2022-10-28T12:29:51.760Z,2.97
2022-10-28T12:32:32.936Z,7.53
2022-10-28T12:37:50.226Z,1.55
2022-10-28T12:40:21.519Z,2.97
2022-10-28T12:42:56.674Z,2.80
2022-10-28T12:45:24.442Z,2.15
2022-10-28T12:48:00.751Z,4.13
2022-10-28T12:50:52.409Z,1.80
2022-10-28T12:53:26.679Z,2.20
2022-10-28T12:56:01.868Z,2.58
2022-10-28T12:58:50.206Z,2.15
2022-10-28T13:01:19.885Z,1.30
2022-10-28T13:03:49.662Z,3.63
2022-10-28T13:06:29.855Z,2.67
2022-10-28T13:09:13.654Z,3.38
2022-10-28T13:12:05.455Z,9.52
2022-10-28T13:15:03.064Z,7.22
2022-10-28T13:17:52.027Z,5.43
2022-10-28T13:20:41.758Z,5.15
2022-10-28T13:23:22.233Z,6.43
2022-10-28T13:26:06.905Z,4.70
2022-10-28T13:28:37.279Z,6.60
2022-10-28T13:31:07.394Z,9.10
2022-10-28T13:33:38.358Z,2.20
2022-10-28T13:36:30.864Z,4.13
2022-10-28T13:39:02.502Z,3.33
2022-10-28T13:41:37.237Z,3.65
2022-10-28T13:44:10.823Z,4.13
2022-10-28T13:47:00.148Z,1.63
2022-10-28T13:49:34.335Z,6.97
2022-10-28T13:52:07.136Z,3.50
2022-10-28T13:54:39.839Z,9.00
2022-10-28T13:57:13.944Z,7.78
2022-10-28T14:03:24.306Z,3.85
2022-10-28T14:05:52.800Z,3.90
2022-10-28T14:08:33.893Z,3.53
2022-10-28T14:11:23.356Z,4.10
2022-10-28T14:14:02.018Z,5.00
2022-10-28T14:16:29.501Z,3.22
2022-10-28T14:19:04.601Z,2.50
2022-10-28T14:22:01.508Z,2.15
2022-10-28T14:24:41.003Z,3.38
2022-10-28T14:27:15.530Z,1.80
2022-10-28T14:29:56.514Z,4.13
2022-10-28T14:32:32.562Z,1.98
2022-10-28T14:35:13.183Z,4.10
2022-10-28T14:37:40.131Z,2.05
2022-10-28T14:40:53.270Z,2.03
2022-10-28T14:43:30.672Z,3.08
2022-10-28T14:46:25.222Z,1.00
2022-10-28T14:48:56.048Z,1.88
2022-10-28T14:51:44.122Z,3.13
2022-10-28T14:54:17.914Z,2.50
2022-10-28T14:56:45.775Z,2.10
2022-10-28T14:59:37.002Z,1.48
2022-10-28T15:04:49.025Z,4.30
2022-10-28T15:07:19.722Z,1.60
2022-10-28T15:09:53.845Z,2.95
2022-10-28T15:12:22.986Z,4.10
2022-10-28T15:14:52.613Z,5.63
2022-10-28T15:17:28.343Z,1.83
2022-10-28T15:20:01.039Z,1.88
2022-10-28T15:22:33.585Z,2.50
2022-10-28T15:25:07.079Z,1.00
2022-10-28T15:27:36.488Z,3.20
2022-10-28T15:30:23.610Z,2.65
2022-10-28T15:32:55.078Z,1.95
2022-10-28T15:35:31.231Z,0.95
2022-10-28T15:38:01.345Z,1.30
2022-10-28T15:40:36.155Z,4.72
2022-10-28T15:43:08.047Z,8.10
2022-10-28T15:45:42.238Z,19.55
2022-10-28T15:48:15.595Z,9.77
2022-10-28T15:50:42.755Z,8.13
2022-10-28T15:53:13.209Z,4.18
2022-10-28T15:58:33.939Z,10.23
2022-10-28T16:01:01.032Z,9.20
2022-10-28T16:03:40.336Z,3.13
2022-10-28T16:06:22.021Z,9.07
2022-10-28T16:09:18.572Z,1.42
2022-10-28T16:11:50.384Z,3.17
2022-10-28T16:14:38.868Z,4.57
2022-10-28T16:17:09.869Z,4.60
2022-10-28T16:19:39.694Z,1.88
2022-10-28T16:22:07.529Z,6.93
2022-10-28T16:24:34.581Z,4.32
2022-10-28T16:27:22.031Z,3.33
2022-10-28T16:29:50.254Z,7.93
2022-10-28T16:32:25.411Z,2.78
2022-10-28T16:34:52.420Z,8.35
2022-10-28T16:37:28.632Z,11.60
2022-10-28T16:39:56.177Z,2.35
2022-10-28T16:42:23.715Z,4.07
2022-10-28T16:44:52.078Z,2.03
2022-10-28T16:47:21.605Z,6.18
2022-10-28T16:49:54.515Z,3.60
2022-10-28T16:52:27.408Z,4.38
2022-10-28T16:54:54.400Z,2.08
2022-10-28T16:57:21.827Z,4.20
2022-10-28T16:59:49.279Z,6.28
2022-10-28T17:02:31.412Z,3.72
2022-10-28T17:04:59.743Z,2.22
2022-10-28T17:07:28.264Z,4.07
2022-10-28T17:09:55.369Z,1.08
2022-10-28T17:12:25.241Z,3.72
2022-10-28T17:14:52.317Z,1.45
2022-10-28T17:17:19.703Z,7.15
2022-10-28T17:19:47.053Z,2.25
2022-10-28T17:22:14.566Z,4.18
2022-10-28T17:24:41.620Z,3.78
2022-10-28T17:27:08.729Z,5.80
2022-10-28T17:29:35.802Z,3.08
2022-10-28T17:32:02.716Z,14.27
2022-10-28T17:34:29.861Z,68.88
2022-10-28T17:36:57.024Z,39.80
2022-10-28T17:39:26.463Z,49.50
2022-10-28T17:41:54.342Z,53.10
2022-10-28T17:44:21.830Z,52.53
2022-10-28T17:46:49.960Z,53.40
2022-10-28T17:49:17.105Z,47.95
2022-10-28T17:51:44.766Z,51.15
2022-10-28T17:54:13.086Z,46.53
2022-10-28T17:56:42.480Z,76.38
2022-10-28T17:59:09.737Z,46.05
2022-10-28T18:01:37.464Z,55.08
2022-10-28T18:04:05.884Z,49.42
2022-10-28T18:06:33.189Z,46.75
2022-10-28T18:09:00.197Z,42.80
2022-10-28T18:11:27.761Z,45.65
2022-10-28T18:13:57.140Z,40.80
2022-10-28T18:16:29.992Z,42.55
2022-10-28T18:18:57.134Z,41.30
2022-10-28T18:21:27.058Z,39.90
2022-10-28T18:24:02.373Z,31.35
2022-10-28T18:26:32.384Z,30.27
2022-10-28T18:29:00.226Z,31.35
2022-10-28T18:31:27.543Z,22.98
2022-10-28T18:33:55.456Z,22.73
2022-10-28T18:36:24.391Z,25.50
2022-10-28T18:38:52.344Z,18.42
2022-10-28T18:41:22.471Z,24.08
2022-10-28T18:43:57.129Z,10.40
2022-10-28T18:46:26.029Z,14.30
2022-10-28T18:48:53.798Z,12.68
2022-10-28T18:51:22.328Z,13.07
2022-10-28T18:53:49.957Z,12.07
2022-10-28T18:56:20.485Z,9.13
2022-10-28T18:58:49.895Z,7.63
2022-10-28T19:01:21.021Z,10.88
2022-10-28T19:03:55.532Z,8.32
2022-10-28T19:06:25.888Z,6.97
2022-10-28T19:08:58.622Z,6.97
2022-10-28T19:11:31.578Z,7.05
2022-10-28T19:14:00.478Z,7.18
2022-10-28T19:16:28.965Z,8.10
2022-10-28T19:18:58.223Z,3.13
2022-10-28T19:21:26.765Z,6.43
2022-10-28T19:23:54.975Z,5.75
2022-10-28T19:26:23.935Z,6.35
2022-10-28T19:28:52.159Z,4.75
2022-10-28T19:31:22.812Z,6.10
2022-10-28T19:33:50.435Z,5.30
2022-10-28T19:36:23.582Z,4.70
2022-10-28T19:38:58.372Z,5.38
2022-10-28T19:41:28.040Z,4.43
2022-10-28T19:43:58.462Z,4.95
2022-10-28T19:48:58.230Z,3.58
2022-10-28T19:51:30.832Z,2.80
2022-10-28T19:54:13.160Z,3.28
2022-10-28T19:56:40.854Z,3.45
2022-10-28T19:59:08.227Z,4.68
2022-10-28T20:01:38.392Z,4.30
2022-10-28T20:04:06.691Z,4.85
2022-10-28T20:06:36.600Z,3.97
2022-10-28T20:09:04.571Z,4.57
2022-10-28T20:11:34.081Z,3.05
2022-10-28T20:14:04.667Z,4.75
2022-10-28T20:16:33.662Z,2.10
2022-10-28T20:19:00.943Z,8.05
2022-10-28T20:21:33.248Z,3.97
2022-10-28T20:24:01.308Z,7.15
2022-10-28T20:26:31.047Z,4.35
2022-10-28T20:29:00.039Z,4.03
2022-10-28T20:31:32.251Z,6.22
2022-10-28T20:34:04.939Z,5.78
2022-10-28T20:36:42.343Z,3.63
2022-10-28T20:39:17.905Z,3.60
2022-10-28T20:41:48.526Z,3.47
2022-10-28T20:46:51.981Z,4.53
2022-10-28T20:49:20.815Z,2.72
2022-10-28T20:51:50.429Z,4.65
2022-10-28T20:54:17.585Z,3.65
2022-10-28T20:56:44.935Z,4.50
2022-10-28T20:59:12.135Z,4.75
2022-10-28T21:01:41.508Z,6.85
2022-10-28T21:04:12.176Z,3.97
2022-10-28T21:06:40.619Z,4.70
2022-10-28T21:09:09.119Z,3.55
2022-10-28T21:11:36.827Z,3.65
2022-10-28T21:14:03.941Z,3.58
2022-10-28T21:16:31.720Z,3.35
2022-10-28T21:18:59.678Z,3.65
2022-10-28T21:21:27.943Z,3.30
2022-10-28T21:26:22.403Z,6.47
2022-10-28T21:28:52.334Z,3.67
2022-10-28T21:31:21.089Z,4.22
2022-10-28T21:36:35.498Z,3.97
2022-10-28T21:39:02.436Z,4.32
2022-10-28T21:41:29.456Z,2.25
2022-10-28T21:43:56.751Z,3.13
2022-10-28T21:46:24.787Z,3.97
2022-10-28T21:48:53.024Z,6.00
2022-10-28T21:51:20.062Z,3.90
2022-10-28T21:53:47.199Z,4.25
2022-10-28T21:56:18.156Z,2.38
2022-10-28T21:58:47.470Z,5.82
2022-10-28T22:01:15.964Z,4.38
2022-10-28T22:03:43.482Z,3.45
2022-10-28T22:06:10.672Z,2.80
2022-10-28T22:08:37.930Z,3.85
2022-10-28T22:11:07.324Z,5.03
2022-10-28T22:13:34.838Z,3.53
2022-10-28T22:16:04.861Z,3.90
2022-10-28T22:18:33.803Z,4.70
2022-10-28T22:21:06.297Z,3.42
2022-10-28T22:23:33.433Z,4.00
2022-10-28T22:26:09.206Z,6.95
2022-10-28T22:28:36.193Z,3.67
2022-10-28T22:31:06.530Z,4.20
2022-10-28T22:33:34.535Z,3.40
2022-10-28T22:36:04.688Z,3.05
2022-10-28T22:38:31.879Z,5.82
2022-10-28T22:41:19.647Z,4.70
2022-10-28T22:43:50.615Z,4.43
2022-10-28T22:46:18.586Z,3.63
2022-10-28T22:48:46.644Z,4.65
2022-10-28T22:51:14.080Z,4.97
2022-10-28T22:53:41.293Z,6.68
2022-10-28T22:56:11.594Z,7.38
2022-10-28T22:58:38.489Z,4.07
2022-10-28T23:01:09.453Z,6.13
2022-10-28T23:03:38.355Z,3.65
2022-10-28T23:06:06.003Z,4.32
2022-10-28T23:08:33.393Z,6.53
2022-10-28T23:11:00.603Z,4.38
2022-10-28T23:13:27.801Z,6.03
2022-10-28T23:15:55.504Z,6.15
2022-10-28T23:18:27.337Z,4.57
2022-10-28T23:20:54.247Z,4.25
2022-10-28T23:23:21.398Z,4.40
2022-10-28T23:25:57.583Z,3.75
2022-10-28T23:28:24.758Z,4.40
2022-10-28T23:30:51.669Z,4.32
2022-10-28T23:33:18.623Z,5.90
2022-10-28T23:35:45.496Z,4.22
2022-10-28T23:38:16.695Z,3.28
2022-10-28T23:40:43.569Z,4.00
2022-10-28T23:43:10.422Z,7.25
2022-10-28T23:45:39.216Z,3.45
2022-10-28T23:48:06.265Z,5.28
2022-10-28T23:50:33.212Z,3.95
2022-10-28T23:53:00.104Z,5.97
2022-10-28T23:55:26.935Z,5.10
2022-10-28T23:57:56.971Z,4.15
